sensor_id;sensor_type;location;lat;lon;timestamp;pressure;altitude;pressure_sealevel;temperature
67515;BMP280;60646;55.802;37.032;2022-09-01T00:01:53;99059.69;;;16.36
67515;BMP280;60646;55.802;37.032;2022-09-01T00:04:21;99065.81;;;16.36
67515;BMP280;60646;55.802;37.032;2022-09-01T00:06:50;99047.97;;;16.18
67515;BMP280;60646;55.802;37.032;2022-09-01T00:09:20;99068.13;;;16.32
67515;BMP280;60646;55.802;37.032;2022-09-01T00:11:51;99062.56;;;16.30
67515;BMP280;60646;55.802;37.032;2022-09-01T00:14:24;99055.72;;;16.29
67515;BMP280;60646;55.802;37.032;2022-09-01T00:16:50;99045.47;;;16.20
67515;BMP280;60646;55.802;37.032;2022-09-01T00:19:16;99048.53;;;16.17
67515;BMP280;60646;55.802;37.032;2022-09-01T00:21:43;99057.31;;;16.25
67515;BMP280;60646;55.802;37.032;2022-09-01T00:24:12;99052.47;;;16.23
67515;BMP280;60646;55.802;37.032;2022-09-01T00:26:39;99057.84;;;16.16
67515;BMP280;60646;55.802;37.032;2022-09-01T00:29:05;99040.22;;;16.07
67515;BMP280;60646;55.802;37.032;2022-09-01T00:31:31;99050.13;;;16.12
67515;BMP280;60646;55.802;37.032;2022-09-01T00:33:57;99045.59;;;16.07
67515;BMP280;60646;55.802;37.032;2022-09-01T00:36:24;99049.94;;;16.10
67515;BMP280;60646;55.802;37.032;2022-09-01T00:38:50;99046.47;;;16.02
67515;BMP280;60646;55.802;37.032;2022-09-01T00:41:18;99046.34;;;16.00
67515;BMP280;60646;55.802;37.032;2022-09-01T00:43:53;99056.03;;;16.03
67515;BMP280;60646;55.802;37.032;2022-09-01T00:46:46;99053.00;;;16.06
67515;BMP280;60646;55.802;37.032;2022-09-01T00:49:17;99061.03;;;15.99
67515;BMP280;60646;55.802;37.032;2022-09-01T00:51:47;99041.63;;;15.85
67515;BMP280;60646;55.802;37.032;2022-09-01T00:54:21;99053.28;;;15.88
67515;BMP280;60646;55.802;37.032;2022-09-01T00:56:47;99048.75;;;15.83
67515;BMP280;60646;55.802;37.032;2022-09-01T00:59:15;99054.34;;;15.85
67515;BMP280;60646;55.802;37.032;2022-09-01T01:01:42;99062.81;;;15.89
67515;BMP280;60646;55.802;37.032;2022-09-01T01:04:08;99059.19;;;15.86
67515;BMP280;60646;55.802;37.032;2022-09-01T01:06:45;99057.72;;;15.78
67515;BMP280;60646;55.802;37.032;2022-09-01T01:09:16;99073.22;;;15.85
67515;BMP280;60646;55.802;37.032;2022-09-01T01:11:43;99051.56;;;15.70
67515;BMP280;60646;55.802;37.032;2022-09-01T01:14:14;99064.56;;;15.79
67515;BMP280;60646;55.802;37.032;2022-09-01T01:16:46;99048.88;;;15.70
67515;BMP280;60646;55.802;37.032;2022-09-01T01:19:17;99061.13;;;15.78
67515;BMP280;60646;55.802;37.032;2022-09-01T01:22:07;99053.59;;;15.77
67515;BMP280;60646;55.802;37.032;2022-09-01T01:24:53;99041.13;;;15.59
67515;BMP280;60646;55.802;37.032;2022-09-01T01:27:21;99051.22;;;15.66
67515;BMP280;60646;55.802;37.032;2022-09-01T01:29:48;99030.50;;;15.53
67515;BMP280;60646;55.802;37.032;2022-09-01T01:32:16;99053.72;;;15.64
67515;BMP280;60646;55.802;37.032;2022-09-01T01:35:00;99053.00;;;15.63
67515;BMP280;60646;55.802;37.032;2022-09-01T01:37:33;99052.66;;;15.67
67515;BMP280;60646;55.802;37.032;2022-09-01T01:40:00;99033.19;;;15.53
67515;BMP280;60646;55.802;37.032;2022-09-01T01:42:27;99032.31;;;15.51
67515;BMP280;60646;55.802;37.032;2022-09-01T01:44:53;99050.47;;;15.58
67515;BMP280;60646;55.802;37.032;2022-09-01T01:47:38;99037.16;;;15.52
67515;BMP280;60646;55.802;37.032;2022-09-01T01:50:06;99030.28;;;15.43
67515;BMP280;60646;55.802;37.032;2022-09-01T01:52:35;99033.19;;;15.46
67515;BMP280;60646;55.802;37.032;2022-09-01T01:55:01;99046.09;;;15.47
67515;BMP280;60646;55.802;37.032;2022-09-01T01:57:29;99045.78;;;15.51
67515;BMP280;60646;55.802;37.032;2022-09-01T01:59:57;99025.25;;;15.40
67515;BMP280;60646;55.802;37.032;2022-09-01T02:02:24;99031.28;;;15.33
67515;BMP280;60646;55.802;37.032;2022-09-01T02:04:49;99037.78;;;15.37
67515;BMP280;60646;55.802;37.032;2022-09-01T02:07:15;99044.59;;;15.38
67515;BMP280;60646;55.802;37.032;2022-09-01T02:09:42;99042.78;;;15.33
67515;BMP280;60646;55.802;37.032;2022-09-01T02:12:14;99033.09;;;15.30
67515;BMP280;60646;55.802;37.032;2022-09-01T02:14:44;99035.25;;;15.32
67515;BMP280;60646;55.802;37.032;2022-09-01T02:17:10;99044.25;;;15.34
67515;BMP280;60646;55.802;37.032;2022-09-01T02:19:35;99037.56;;;15.28
67515;BMP280;60646;55.802;37.032;2022-09-01T02:22:07;99043.16;;;15.37
67515;BMP280;60646;55.802;37.032;2022-09-01T02:24:54;99032.69;;;15.26
67515;BMP280;60646;55.802;37.032;2022-09-01T02:27:22;99024.44;;;15.24
67515;BMP280;60646;55.802;37.032;2022-09-01T02:30:09;99036.63;;;15.25
67515;BMP280;60646;55.802;37.032;2022-09-01T02:32:36;99040.59;;;15.24
67515;BMP280;60646;55.802;37.032;2022-09-01T02:35:04;99049.94;;;15.31
67515;BMP280;60646;55.802;37.032;2022-09-01T02:37:37;99063.25;;;15.36
67515;BMP280;60646;55.802;37.032;2022-09-01T02:40:06;99043.88;;;15.30
67515;BMP280;60646;55.802;37.032;2022-09-01T02:42:36;99056.44;;;15.35
67515;BMP280;60646;55.802;37.032;2022-09-01T02:45:06;99047.66;;;15.35
67515;BMP280;60646;55.802;37.032;2022-09-01T02:47:41;99041.03;;;15.36
67515;BMP280;60646;55.802;37.032;2022-09-01T02:50:12;99057.56;;;15.48
67515;BMP280;60646;55.802;37.032;2022-09-01T02:52:42;99035.97;;;15.32
67515;BMP280;60646;55.802;37.032;2022-09-01T02:55:10;99052.19;;;15.48
67515;BMP280;60646;55.802;37.032;2022-09-01T02:57:37;99047.88;;;15.45
67515;BMP280;60646;55.802;37.032;2022-09-01T03:00:07;99050.06;;;15.54
67515;BMP280;60646;55.802;37.032;2022-09-01T03:03:04;99040.38;;;15.51
67515;BMP280;60646;55.802;37.032;2022-09-01T03:05:31;99060.38;;;15.63
67515;BMP280;60646;55.802;37.032;2022-09-01T03:08:01;99056.59;;;15.66
67515;BMP280;60646;55.802;37.032;2022-09-01T03:10:31;99036.78;;;15.56
67515;BMP280;60646;55.802;37.032;2022-09-01T03:12:59;99048.50;;;15.66
67515;BMP280;60646;55.802;37.032;2022-09-01T03:15:45;99055.94;;;15.73
67515;BMP280;60646;55.802;37.032;2022-09-01T03:18:13;99047.28;;;15.67
67515;BMP280;60646;55.802;37.032;2022-09-01T03:20:44;99060.63;;;15.80
67515;BMP280;60646;55.802;37.032;2022-09-01T03:23:13;99051.78;;;15.72
67515;BMP280;60646;55.802;37.032;2022-09-01T03:25:45;99052.69;;;15.74
67515;BMP280;60646;55.802;37.032;2022-09-01T03:28:12;99052.34;;;15.78
67515;BMP280;60646;55.802;37.032;2022-09-01T03:30:46;99052.53;;;15.80
67515;BMP280;60646;55.802;37.032;2022-09-01T03:33:12;99050.53;;;15.80
67515;BMP280;60646;55.802;37.032;2022-09-01T03:35:39;99045.72;;;15.79
67515;BMP280;60646;55.802;37.032;2022-09-01T03:38:05;99059.91;;;15.87
67515;BMP280;60646;55.802;37.032;2022-09-01T03:40:33;99048.97;;;15.85
67515;BMP280;60646;55.802;37.032;2022-09-01T03:43:06;99059.75;;;15.92
67515;BMP280;60646;55.802;37.032;2022-09-01T03:45:35;99062.06;;;15.88
67515;BMP280;60646;55.802;37.032;2022-09-01T03:48:04;99061.72;;;15.92
67515;BMP280;60646;55.802;37.032;2022-09-01T03:50:39;99062.09;;;15.96
67515;BMP280;60646;55.802;37.032;2022-09-01T03:53:08;99053.09;;;15.86
67515;BMP280;60646;55.802;37.032;2022-09-01T03:55:35;99045.56;;;15.84
67515;BMP280;60646;55.802;37.032;2022-09-01T03:58:07;99060.84;;;15.97
67515;BMP280;60646;55.802;37.032;2022-09-01T04:00:41;99063.91;;;16.01
67515;BMP280;60646;55.802;37.032;2022-09-01T04:03:31;99065.34;;;16.02
67515;BMP280;60646;55.802;37.032;2022-09-01T04:06:24;99047.88;;;15.88
67515;BMP280;60646;55.802;37.032;2022-09-01T04:08:51;99055.28;;;15.95
67515;BMP280;60646;55.802;37.032;2022-09-01T04:11:29;99042.72;;;15.90
67515;BMP280;60646;55.802;37.032;2022-09-01T04:13:57;99053.16;;;16.01
67515;BMP280;60646;55.802;37.032;2022-09-01T04:16:26;99052.03;;;15.96
67515;BMP280;60646;55.802;37.032;2022-09-01T04:19:13;99047.72;;;15.93
67515;BMP280;60646;55.802;37.032;2022-09-01T04:21:47;99054.56;;;16.02
67515;BMP280;60646;55.802;37.032;2022-09-01T04:24:18;99058.53;;;16.01
67515;BMP280;60646;55.802;37.032;2022-09-01T04:26:46;99048.47;;;15.94
67515;BMP280;60646;55.802;37.032;2022-09-01T04:29:16;99056.75;;;16.03
67515;BMP280;60646;55.802;37.032;2022-09-01T04:31:44;99059.97;;;16.09
67515;BMP280;60646;55.802;37.032;2022-09-01T04:34:16;99049.19;;;16.02
67515;BMP280;60646;55.802;37.032;2022-09-01T04:36:43;99058.22;;;16.12
67515;BMP280;60646;55.802;37.032;2022-09-01T04:39:10;99052.09;;;16.12
67515;BMP280;60646;55.802;37.032;2022-09-01T04:41:42;99030.31;;;16.02
67515;BMP280;60646;55.802;37.032;2022-09-01T04:44:14;99057.69;;;16.21
67515;BMP280;60646;55.802;37.032;2022-09-01T04:47:02;99059.28;;;16.24
67515;BMP280;60646;55.802;37.032;2022-09-01T04:49:28;99042.78;;;16.20
67515;BMP280;60646;55.802;37.032;2022-09-01T04:51:54;99039.34;;;16.20
67515;BMP280;60646;55.802;37.032;2022-09-01T04:54:22;99043.88;;;16.32
67515;BMP280;60646;55.802;37.032;2022-09-01T04:56:49;99051.06;;;16.37
67515;BMP280;60646;55.802;37.032;2022-09-01T04:59:18;99051.41;;;16.41
67515;BMP280;60646;55.802;37.032;2022-09-01T05:01:50;99041.34;;;16.34
67515;BMP280;60646;55.802;37.032;2022-09-01T05:04:37;99042.81;;;16.43
67515;BMP280;60646;55.802;37.032;2022-09-01T05:07:09;99047.84;;;16.46
67515;BMP280;60646;55.802;37.032;2022-09-01T05:09:39;99035.25;;;16.41
67515;BMP280;60646;55.802;37.032;2022-09-01T05:12:23;99053.97;;;16.54
67515;BMP280;60646;55.802;37.032;2022-09-01T05:14:50;99041.56;;;16.51
67515;BMP280;60646;55.802;37.032;2022-09-01T05:17:18;99040.31;;;16.52
67515;BMP280;60646;55.802;37.032;2022-09-01T05:19:47;99048.94;;;16.58
67515;BMP280;60646;55.802;37.032;2022-09-01T05:22:16;99053.25;;;16.69
67515;BMP280;60646;55.802;37.032;2022-09-01T05:24:58;99059.00;;;16.73
67515;BMP280;60646;55.802;37.032;2022-09-01T05:27:48;99050.22;;;16.72
67515;BMP280;60646;55.802;37.032;2022-09-01T05:30:17;99048.94;;;16.73
67515;BMP280;60646;55.802;37.032;2022-09-01T05:32:43;99043.88;;;16.77
67515;BMP280;60646;55.802;37.032;2022-09-01T05:35:11;99046.59;;;16.85
67515;BMP280;60646;55.802;37.032;2022-09-01T05:37:37;99053.59;;;16.88
67515;BMP280;60646;55.802;37.032;2022-09-01T05:40:06;99067.63;;;17.02
67515;BMP280;60646;55.802;37.032;2022-09-01T05:42:35;99048.19;;;16.96
67515;BMP280;60646;55.802;37.032;2022-09-01T05:45:06;99062.22;;;17.09
67515;BMP280;60646;55.802;37.032;2022-09-01T05:47:32;99040.28;;;16.98
67515;BMP280;60646;55.802;37.032;2022-09-01T05:50:02;99065.44;;;17.15
67515;BMP280;60646;55.802;37.032;2022-09-01T05:52:36;99056.06;;;17.16
67515;BMP280;60646;55.802;37.032;2022-09-01T05:55:03;99042.06;;;17.03
67515;BMP280;60646;55.802;37.032;2022-09-01T05:57:59;99062.53;;;17.21
67515;BMP280;60646;55.802;37.032;2022-09-01T06:00:25;99051.06;;;17.13
67515;BMP280;60646;55.802;37.032;2022-09-01T06:03:00;99048.00;;;17.01
67515;BMP280;60646;55.802;37.032;2022-09-01T06:05:32;99059.69;;;17.11
67515;BMP280;60646;55.802;37.032;2022-09-01T06:08:00;99068.31;;;17.10
67515;BMP280;60646;55.802;37.032;2022-09-01T06:10:26;99046.78;;;16.95
67515;BMP280;60646;55.802;37.032;2022-09-01T06:12:55;99050.34;;;16.97
67515;BMP280;60646;55.802;37.032;2022-09-01T06:15:21;99056.81;;;17.02
67515;BMP280;60646;55.802;37.032;2022-09-01T06:17:51;99074.25;;;17.01
67515;BMP280;60646;55.802;37.032;2022-09-01T06:20:18;99062.97;;;16.95
67515;BMP280;60646;55.802;37.032;2022-09-01T06:22:44;99074.84;;;16.99
67515;BMP280;60646;55.802;37.032;2022-09-01T06:25:10;99073.00;;;17.02
67515;BMP280;60646;55.802;37.032;2022-09-01T06:27:37;99059.56;;;16.94
67515;BMP280;60646;55.802;37.032;2022-09-01T06:30:06;99069.44;;;16.99
67515;BMP280;60646;55.802;37.032;2022-09-01T06:32:42;99066.88;;;17.01
67515;BMP280;60646;55.802;37.032;2022-09-01T06:35:10;99073.69;;;17.10
67515;BMP280;60646;55.802;37.032;2022-09-01T06:37:42;99078.22;;;17.15
67515;BMP280;60646;55.802;37.032;2022-09-01T06:40:13;99082.34;;;17.16
67515;BMP280;60646;55.802;37.032;2022-09-01T06:42:44;99073.00;;;17.17
67515;BMP280;60646;55.802;37.032;2022-09-01T06:45:16;99067.25;;;17.13
67515;BMP280;60646;55.802;37.032;2022-09-01T06:47:43;99080.53;;;17.18
67515;BMP280;60646;55.802;37.032;2022-09-01T06:50:14;99076.59;;;17.19
67515;BMP280;60646;55.802;37.032;2022-09-01T06:52:41;99065.28;;;17.13
67515;BMP280;60646;55.802;37.032;2022-09-01T06:55:09;99066.34;;;17.18
67515;BMP280;60646;55.802;37.032;2022-09-01T06:57:40;99079.09;;;17.25
67515;BMP280;60646;55.802;37.032;2022-09-01T07:00:09;99072.09;;;17.22
67515;BMP280;60646;55.802;37.032;2022-09-01T07:02:52;99084.47;;;17.32
67515;BMP280;60646;55.802;37.032;2022-09-01T07:05:39;99094.91;;;17.36
67515;BMP280;60646;55.802;37.032;2022-09-01T07:08:08;99085.53;;;17.37
67515;BMP280;60646;55.802;37.032;2022-09-01T07:10:44;99076.19;;;17.30
67515;BMP280;60646;55.802;37.032;2022-09-01T07:13:21;99090.94;;;17.37
67515;BMP280;60646;55.802;37.032;2022-09-01T07:15:51;99098.13;;;17.42
67515;BMP280;60646;55.802;37.032;2022-09-01T07:18:21;99097.06;;;17.45
67515;BMP280;60646;55.802;37.032;2022-09-01T07:20:47;99079.63;;;17.38
67515;BMP280;60646;55.802;37.032;2022-09-01T07:23:15;99090.94;;;17.44
67515;BMP280;60646;55.802;37.032;2022-09-01T07:25:44;99102.44;;;17.53
67515;BMP280;60646;55.802;37.032;2022-09-01T07:28:21;99086.63;;;17.49
67515;BMP280;60646;55.802;37.032;2022-09-01T07:31:24;99098.63;;;17.56
67515;BMP280;60646;55.802;37.032;2022-09-01T07:33:52;99109.09;;;17.52
67515;BMP280;60646;55.802;37.032;2022-09-01T07:36:19;99097.97;;;17.40
67515;BMP280;60646;55.802;37.032;2022-09-01T07:38:46;99106.44;;;17.44
67515;BMP280;60646;55.802;37.032;2022-09-01T07:41:20;99119.03;;;17.49
67515;BMP280;60646;55.802;37.032;2022-09-01T07:44:25;99109.13;;;17.44
67515;BMP280;60646;55.802;37.032;2022-09-01T07:47:09;99105.72;;;17.43
67515;BMP280;60646;55.802;37.032;2022-09-01T07:49:37;99117.91;;;17.52
67515;BMP280;60646;55.802;37.032;2022-09-01T07:52:04;99094.34;;;17.45
67515;BMP280;60646;55.802;37.032;2022-09-01T07:54:33;99099.56;;;17.58
67515;BMP280;60646;55.802;37.032;2022-09-01T07:57:01;99092.84;;;17.67
67515;BMP280;60646;55.802;37.032;2022-09-01T07:59:30;99099.31;;;17.71
67515;BMP280;60646;55.802;37.032;2022-09-01T08:02:03;99106.84;;;17.80
67515;BMP280;60646;55.802;37.032;2022-09-01T08:04:32;99096.94;;;17.83
67515;BMP280;60646;55.802;37.032;2022-09-01T08:06:59;99082.53;;;17.80
67515;BMP280;60646;55.802;37.032;2022-09-01T08:09:27;99094.38;;;17.92
67515;BMP280;60646;55.802;37.032;2022-09-01T08:11:55;99094.88;;;17.98
67515;BMP280;60646;55.802;37.032;2022-09-01T08:14:21;99096.47;;;18.01
67515;BMP280;60646;55.802;37.032;2022-09-01T08:16:49;99092.88;;;18.06
67515;BMP280;60646;55.802;37.032;2022-09-01T08:19:14;99092.88;;;18.06
67515;BMP280;60646;55.802;37.032;2022-09-01T08:22:05;99086.72;;;18.06
67515;BMP280;60646;55.802;37.032;2022-09-01T08:24:42;99101.97;;;18.19
67515;BMP280;60646;55.802;37.032;2022-09-01T08:27:15;99100.72;;;18.20
67515;BMP280;60646;55.802;37.032;2022-09-01T08:29:41;99083.81;;;18.11
67515;BMP280;60646;55.802;37.032;2022-09-01T08:32:08;99096.34;;;18.24
67515;BMP280;60646;55.802;37.032;2022-09-01T08:34:39;99099.22;;;18.26
67515;BMP280;60646;55.802;37.032;2022-09-01T08:37:05;99096.16;;;18.30
67515;BMP280;60646;55.802;37.032;2022-09-01T08:39:34;99079.41;;;18.24
67515;BMP280;60646;55.802;37.032;2022-09-01T08:47:51;99089.81;;;18.35
67515;BMP280;60646;55.802;37.032;2022-09-01T08:50:19;99095.56;;;18.39
67515;BMP280;60646;55.802;37.032;2022-09-01T08:55:54;99096.38;;;18.49
67515;BMP280;60646;55.802;37.032;2022-09-01T08:58:21;99083.28;;;18.38
67515;BMP280;60646;55.802;37.032;2022-09-01T09:01:18;99116.50;;;18.55
67515;BMP280;60646;55.802;37.032;2022-09-01T09:04:04;99114.34;;;18.54
67515;BMP280;60646;55.802;37.032;2022-09-01T09:06:49;99122.47;;;18.54
67515;BMP280;60646;55.802;37.032;2022-09-01T09:09:19;99118.97;;;18.44
67515;BMP280;60646;55.802;37.032;2022-09-01T09:14:40;99128.66;;;18.47
67515;BMP280;60646;55.802;37.032;2022-09-01T09:17:08;99125.63;;;18.43
67515;BMP280;60646;55.802;37.032;2022-09-01T09:19:42;99122.72;;;18.41
67515;BMP280;60646;55.802;37.032;2022-09-01T09:22:11;99117.72;;;18.37
67515;BMP280;60646;55.802;37.032;2022-09-01T09:27:35;99127.88;;;18.54
67515;BMP280;60646;55.802;37.032;2022-09-01T09:30:19;99120.13;;;18.58
67515;BMP280;60646;55.802;37.032;2022-09-01T09:33:06;99117.44;;;18.58
67515;BMP280;60646;55.802;37.032;2022-09-01T09:35:42;99127.97;;;18.71
67515;BMP280;60646;55.802;37.032;2022-09-01T09:41:21;99108.00;;;18.59
67515;BMP280;60646;55.802;37.032;2022-09-01T09:46:40;99128.91;;;18.66
67515;BMP280;60646;55.802;37.032;2022-09-01T09:49:31;99130.34;;;18.67
67515;BMP280;60646;55.802;37.032;2022-09-01T09:59:46;99140.97;;;18.65
67515;BMP280;60646;55.802;37.032;2022-09-01T10:02:35;99155.47;;;18.77
67515;BMP280;60646;55.802;37.032;2022-09-01T10:07:47;99143.28;;;18.68
67515;BMP280;60646;55.802;37.032;2022-09-01T10:13:02;99140.38;;;18.74
67515;BMP280;60646;55.802;37.032;2022-09-01T10:15:31;99154.03;;;18.83
67515;BMP280;60646;55.802;37.032;2022-09-01T10:18:08;99159.34;;;18.91
67515;BMP280;60646;55.802;37.032;2022-09-01T10:27:34;99164.66;;;19.06
67515;BMP280;60646;55.802;37.032;2022-09-01T10:30:09;99156.84;;;19.10
67515;BMP280;60646;55.802;37.032;2022-09-01T10:32:54;99157.38;;;19.16
67515;BMP280;60646;55.802;37.032;2022-09-01T10:35:25;99161.66;;;19.19
67515;BMP280;60646;55.802;37.032;2022-09-01T10:37:52;99160.38;;;19.20
67515;BMP280;60646;55.802;37.032;2022-09-01T10:40:34;99145.22;;;19.17
67515;BMP280;60646;55.802;37.032;2022-09-01T10:45:46;99157.78;;;19.30
67515;BMP280;60646;55.802;37.032;2022-09-01T10:50:45;99163.19;;;19.47
67515;BMP280;60646;55.802;37.032;2022-09-01T11:02:08;99165.72;;;19.45
67515;BMP280;60646;55.802;37.032;2022-09-01T11:07:28;99160.72;;;19.41
67515;BMP280;60646;55.802;37.032;2022-09-01T11:15:38;99150.09;;;19.19
67515;BMP280;60646;55.802;37.032;2022-09-01T11:18:10;99160.22;;;19.18
67515;BMP280;60646;55.802;37.032;2022-09-01T11:20:39;99165.94;;;19.22
67515;BMP280;60646;55.802;37.032;2022-09-01T11:25:53;99148.13;;;19.19
67515;BMP280;60646;55.802;37.032;2022-09-01T11:31:00;99148.94;;;19.29
67515;BMP280;60646;55.802;37.032;2022-09-01T11:33:55;99151.44;;;19.27
67515;BMP280;60646;55.802;37.032;2022-09-01T11:42:05;99145.72;;;19.23
67515;BMP280;60646;55.802;37.032;2022-09-01T11:47:19;99126.44;;;19.19
67515;BMP280;60646;55.802;37.032;2022-09-01T11:49:52;99136.97;;;19.32
67515;BMP280;60646;55.802;37.032;2022-09-01T11:52:21;99139.84;;;19.34
67515;BMP280;60646;55.802;37.032;2022-09-01T11:54:50;99133.00;;;19.33
67515;BMP280;60646;55.802;37.032;2022-09-01T11:57:38;99133.22;;;19.45
67515;BMP280;60646;55.802;37.032;2022-09-01T12:00:29;99124.84;;;19.50
67515;BMP280;60646;55.802;37.032;2022-09-01T12:02:56;99121.44;;;19.50
67515;BMP280;60646;55.802;37.032;2022-09-01T12:05:33;99104.53;;;19.59
67515;BMP280;60646;55.802;37.032;2022-09-01T12:08:10;99118.31;;;19.71
67515;BMP280;60646;55.802;37.032;2022-09-01T12:10:39;99120.50;;;19.82
67515;BMP280;60646;55.802;37.032;2022-09-01T12:13:23;99124.00;;;19.92
67515;BMP280;60646;55.802;37.032;2022-09-01T12:15:57;99103.44;;;19.89
67515;BMP280;60646;55.802;37.032;2022-09-01T12:18:29;99111.31;;;19.94
67515;BMP280;60646;55.802;37.032;2022-09-01T12:20:57;99118.94;;;20.05
67515;BMP280;60646;55.802;37.032;2022-09-01T12:23:39;99109.47;;;19.97
67515;BMP280;60646;55.802;37.032;2022-09-01T12:26:27;99129.25;;;20.07
67515;BMP280;60646;55.802;37.032;2022-09-01T12:28:55;99118.38;;;20.07
67515;BMP280;60646;55.802;37.032;2022-09-01T12:31:24;99128.28;;;20.12
67515;BMP280;60646;55.802;37.032;2022-09-01T12:33:51;99125.06;;;20.06
67515;BMP280;60646;55.802;37.032;2022-09-01T12:36:24;99130.63;;;20.08
67515;BMP280;60646;55.802;37.032;2022-09-01T12:38:52;99121.75;;;19.98
67515;BMP280;60646;55.802;37.032;2022-09-01T12:41:32;99112.03;;;19.95
67515;BMP280;60646;55.802;37.032;2022-09-01T12:45:00;99135.44;;;20.00
67515;BMP280;60646;55.802;37.032;2022-09-01T12:47:10;99120.81;;;19.86
67515;BMP280;60646;55.802;37.032;2022-09-01T12:49:41;99137.38;;;19.90
67515;BMP280;60646;55.802;37.032;2022-09-01T12:54:51;99125.88;;;19.99
67515;BMP280;60646;55.802;37.032;2022-09-01T12:57:32;99132.84;;;19.92
67515;BMP280;60646;55.802;37.032;2022-09-01T13:00:06;99124.00;;;19.92
67515;BMP280;60646;55.802;37.032;2022-09-01T13:02:48;99131.56;;;19.93
67515;BMP280;60646;55.802;37.032;2022-09-01T13:05:32;99115.25;;;19.84
67515;BMP280;60646;55.802;37.032;2022-09-01T13:08:01;99124.88;;;19.94
67515;BMP280;60646;55.802;37.032;2022-09-01T13:10:34;99126.03;;;20.01
67515;BMP280;60646;55.802;37.032;2022-09-01T13:13:04;99126.03;;;20.01
67515;BMP280;60646;55.802;37.032;2022-09-01T13:15:33;99120.50;;;20.08
67515;BMP280;60646;55.802;37.032;2022-09-01T13:17:59;99119.00;;;20.15
67515;BMP280;60646;55.802;37.032;2022-09-01T13:20:26;99115.31;;;20.20
67515;BMP280;60646;55.802;37.032;2022-09-01T13:22:51;99100.59;;;20.23
67515;BMP280;60646;55.802;37.032;2022-09-01T13:25:24;99115.22;;;20.37
67515;BMP280;60646;55.802;37.032;2022-09-01T13:27:55;99108.25;;;20.44
67515;BMP280;60646;55.802;37.032;2022-09-01T13:30:23;99115.00;;;20.52
67515;BMP280;60646;55.802;37.032;2022-09-01T13:32:52;99113.88;;;20.65
67515;BMP280;60646;55.802;37.032;2022-09-01T13:35:22;99104.69;;;20.51
67515;BMP280;60646;55.802;37.032;2022-09-01T13:37:54;99124.56;;;20.53
67515;BMP280;60646;55.802;37.032;2022-09-01T13:40:24;99141.66;;;20.46
67515;BMP280;60646;55.802;37.032;2022-09-01T13:42:51;99153.41;;;20.49
67515;BMP280;60646;55.802;37.032;2022-09-01T13:45:19;99151.31;;;20.30
67515;BMP280;60646;55.802;37.032;2022-09-01T13:47:51;99162.50;;;20.17
67515;BMP280;60646;55.802;37.032;2022-09-01T13:50:20;99168.22;;;20.11
67515;BMP280;60646;55.802;37.032;2022-09-01T13:52:50;99153.28;;;19.93
67515;BMP280;60646;55.802;37.032;2022-09-01T13:55:23;99144.75;;;19.80
67515;BMP280;60646;55.802;37.032;2022-09-01T13:57:48;99150.78;;;19.88
67515;BMP280;60646;55.802;37.032;2022-09-01T14:00:18;99140.22;;;19.65
67515;BMP280;60646;55.802;37.032;2022-09-01T14:02:46;99141.44;;;19.54
67515;BMP280;60646;55.802;37.032;2022-09-01T14:05:23;99154.81;;;19.52
67515;BMP280;60646;55.802;37.032;2022-09-01T14:07:50;99136.97;;;19.32
67515;BMP280;60646;55.802;37.032;2022-09-01T14:10:18;99141.53;;;19.30
67515;BMP280;60646;55.802;37.032;2022-09-01T14:12:45;99154.47;;;19.31
67515;BMP280;60646;55.802;37.032;2022-09-01T14:15:14;99142.69;;;19.19
67515;BMP280;60646;55.802;37.032;2022-09-01T14:17:40;99136.78;;;19.13
67515;BMP280;60646;55.802;37.032;2022-09-01T14:20:10;99160.59;;;19.15
67515;BMP280;60646;55.802;37.032;2022-09-01T14:22:56;99143.41;;;19.03
67515;BMP280;60646;55.802;37.032;2022-09-01T14:25:23;99149.53;;;19.03
67515;BMP280;60646;55.802;37.032;2022-09-01T14:27:49;99146.66;;;19.01
67515;BMP280;60646;55.802;37.032;2022-09-01T14:30:19;99148.50;;;18.99
67515;BMP280;60646;55.802;37.032;2022-09-01T14:32:46;99153.91;;;18.99
67515;BMP280;60646;55.802;37.032;2022-09-01T14:35:13;99143.63;;;18.97
67515;BMP280;60646;55.802;37.032;2022-09-01T14:37:40;99137.69;;;18.91
67515;BMP280;60646;55.802;37.032;2022-09-01T14:40:08;99137.69;;;18.91
67515;BMP280;60646;55.802;37.032;2022-09-01T14:42:36;99133.22;;;18.86
67515;BMP280;60646;55.802;37.032;2022-09-01T14:45:04;99151.56;;;18.95
67515;BMP280;60646;55.802;37.032;2022-09-01T14:47:30;99151.41;;;18.93
67515;BMP280;60646;55.802;37.032;2022-09-01T14:49:57;99153.63;;;18.87
67515;BMP280;60646;55.802;37.032;2022-09-01T14:52:22;99141.84;;;18.67
67515;BMP280;60646;55.802;37.032;2022-09-01T14:54:48;99148.69;;;18.68
67515;BMP280;60646;55.802;37.032;2022-09-01T14:57:14;99163.69;;;18.69
67515;BMP280;60646;55.802;37.032;2022-09-01T14:59:41;99162.81;;;18.67
67515;BMP280;60646;55.802;37.032;2022-09-01T15:02:08;99142.50;;;18.51
67515;BMP280;60646;55.802;37.032;2022-09-01T15:04:53;99145.22;;;18.51
67515;BMP280;60646;55.802;37.032;2022-09-01T15:07:19;99140.59;;;18.44
67515;BMP280;60646;55.802;37.032;2022-09-01T15:09:45;99153.34;;;18.51
67515;BMP280;60646;55.802;37.032;2022-09-01T15:12:12;99155.88;;;18.49
67515;BMP280;60646;55.802;37.032;2022-09-01T15:14:38;99131.63;;;18.34
67515;BMP280;60646;55.802;37.032;2022-09-01T15:17:35;99154.78;;;18.52
67515;BMP280;60646;55.802;37.032;2022-09-01T15:20:16;99139.75;;;18.34
67515;BMP280;60646;55.802;37.032;2022-09-01T15:23:13;99133.41;;;18.31
67515;BMP280;60646;55.802;37.032;2022-09-01T15:25:43;99149.13;;;18.33
67515;BMP280;60646;55.802;37.032;2022-09-01T15:28:12;99155.06;;;18.31
67515;BMP280;60646;55.802;37.032;2022-09-01T15:30:40;99155.84;;;18.24
67515;BMP280;60646;55.802;37.032;2022-09-01T15:33:08;99140.56;;;18.11
67515;BMP280;60646;55.802;37.032;2022-09-01T15:35:53;99150.13;;;18.12
67515;BMP280;60646;55.802;37.032;2022-09-01T15:38:19;99150.88;;;18.05
67515;BMP280;60646;55.802;37.032;2022-09-01T15:40:46;99153.03;;;18.07
67515;BMP280;60646;55.802;37.032;2022-09-01T15:43:13;99149.81;;;18.01